sensor_id;sensor_type;location;lat;lon;timestamp;temperature;humidity
49032;DHT22;63443;48.366;10.876;2023-04-25T00:01:59;9.30;99.90
49032;DHT22;63443;48.366;10.876;2023-04-25T00:04:25;9.30;99.90
49032;DHT22;63443;48.366;10.876;2023-04-25T00:06:51;9.30;99.90
49032;DHT22;63443;48.366;10.876;2023-04-25T00:09:17;9.30;99.90
49032;DHT22;63443;48.366;10.876;2023-04-25T00:11:43;9.10;99.90
49032;DHT22;63443;48.366;10.876;2023-04-25T00:14:09;9.10;99.90
49032;DHT22;63443;48.366;10.876;2023-04-25T00:16:35;9.00;99.90
49032;DHT22;63443;48.366;10.876;2023-04-25T00:19:03;8.90;99.90
49032;DHT22;63443;48.366;10.876;2023-04-25T00:21:30;8.80;99.90
49032;DHT22;63443;48.366;10.876;2023-04-25T00:23:57;8.80;99.90
49032;DHT22;63443;48.366;10.876;2023-04-25T00:26:22;8.80;99.90
49032;DHT22;63443;48.366;10.876;2023-04-25T00:28:48;8.80;99.90
49032;DHT22;63443;48.366;10.876;2023-04-25T00:31:14;8.70;99.90
49032;DHT22;63443;48.366;10.876;2023-04-25T00:33:39;8.60;99.90
49032;DHT22;63443;48.366;10.876;2023-04-25T00:36:05;8.60;99.90
49032;DHT22;63443;48.366;10.876;2023-04-25T00:38:31;8.60;99.90
49032;DHT22;63443;48.366;10.876;2023-04-25T00:40:57;8.50;99.90
49032;DHT22;63443;48.366;10.876;2023-04-25T00:43:27;8.50;99.90
49032;DHT22;63443;48.366;10.876;2023-04-25T00:45:53;8.50;99.90
49032;DHT22;63443;48.366;10.876;2023-04-25T00:48:21;8.50;99.90
49032;DHT22;63443;48.366;10.876;2023-04-25T00:50:54;8.50;99.90
49032;DHT22;63443;48.366;10.876;2023-04-25T00:53:21;8.60;99.90
49032;DHT22;63443;48.366;10.876;2023-04-25T00:55:47;8.50;99.90
49032;DHT22;63443;48.366;10.876;2023-04-25T00:58:13;8.50;99.90
49032;DHT22;63443;48.366;10.876;2023-04-25T01:00:40;8.60;99.90
49032;DHT22;63443;48.366;10.876;2023-04-25T01:03:06;8.60;99.90
49032;DHT22;63443;48.366;10.876;2023-04-25T01:05:31;8.70;99.90
49032;DHT22;63443;48.366;10.876;2023-04-25T01:07:57;8.70;99.90
49032;DHT22;63443;48.366;10.876;2023-04-25T01:10:23;8.70;99.90
49032;DHT22;63443;48.366;10.876;2023-04-25T01:12:49;8.70;99.90
49032;DHT22;63443;48.366;10.876;2023-04-25T01:15:15;8.70;99.90
49032;DHT22;63443;48.366;10.876;2023-04-25T01:17:40;8.80;99.90
49032;DHT22;63443;48.366;10.876;2023-04-25T01:20:08;8.80;99.90
49032;DHT22;63443;48.366;10.876;2023-04-25T01:22:35;8.80;99.90
49032;DHT22;63443;48.366;10.876;2023-04-25T01:25:01;8.80;99.90
49032;DHT22;63443;48.366;10.876;2023-04-25T01:27:27;8.90;99.90
49032;DHT22;63443;48.366;10.876;2023-04-25T01:29:54;8.80;99.90
49032;DHT22;63443;48.366;10.876;2023-04-25T01:32:22;8.90;99.90
49032;DHT22;63443;48.366;10.876;2023-04-25T01:34:48;8.80;99.90
49032;DHT22;63443;48.366;10.876;2023-04-25T01:37:13;8.70;99.90
49032;DHT22;63443;48.366;10.876;2023-04-25T01:39:39;8.70;99.90
49032;DHT22;63443;48.366;10.876;2023-04-25T01:42:04;8.60;99.90
49032;DHT22;63443;48.366;10.876;2023-04-25T01:44:30;8.50;99.90
49032;DHT22;63443;48.366;10.876;2023-04-25T01:46:55;8.60;99.90
49032;DHT22;63443;48.366;10.876;2023-04-25T01:49:21;8.60;99.90
49032;DHT22;63443;48.366;10.876;2023-04-25T01:51:46;8.60;99.90
49032;DHT22;63443;48.366;10.876;2023-04-25T01:54:12;8.60;99.90
49032;DHT22;63443;48.366;10.876;2023-04-25T01:56:37;8.60;99.90
49032;DHT22;63443;48.366;10.876;2023-04-25T01:59:04;8.50;99.90
49032;DHT22;63443;48.366;10.876;2023-04-25T02:01:29;8.60;99.90
49032;DHT22;63443;48.366;10.876;2023-04-25T02:03:55;8.50;99.90
49032;DHT22;63443;48.366;10.876;2023-04-25T02:06:20;8.50;99.90
49032;DHT22;63443;48.366;10.876;2023-04-25T02:08:46;8.50;99.90
49032;DHT22;63443;48.366;10.876;2023-04-25T02:11:11;8.50;99.90
49032;DHT22;63443;48.366;10.876;2023-04-25T02:13:37;8.40;99.90
49032;DHT22;63443;48.366;10.876;2023-04-25T02:16:02;8.40;99.90
49032;DHT22;63443;48.366;10.876;2023-04-25T02:18:28;8.40;99.90
49032;DHT22;63443;48.366;10.876;2023-04-25T02:20:53;8.40;99.90
49032;DHT22;63443;48.366;10.876;2023-04-25T02:23:19;8.40;99.90
49032;DHT22;63443;48.366;10.876;2023-04-25T02:25:44;8.40;99.90
49032;DHT22;63443;48.366;10.876;2023-04-25T02:28:10;8.40;99.90
49032;DHT22;63443;48.366;10.876;2023-04-25T02:30:35;8.30;99.90
49032;DHT22;63443;48.366;10.876;2023-04-25T02:33:01;8.40;99.90
49032;DHT22;63443;48.366;10.876;2023-04-25T02:35:26;8.40;99.90
49032;DHT22;63443;48.366;10.876;2023-04-25T02:37:52;8.40;99.90
49032;DHT22;63443;48.366;10.876;2023-04-25T02:40:17;8.40;99.90
49032;DHT22;63443;48.366;10.876;2023-04-25T02:42:43;8.40;99.90
49032;DHT22;63443;48.366;10.876;2023-04-25T02:45:11;8.40;99.90
49032;DHT22;63443;48.366;10.876;2023-04-25T02:47:36;8.40;99.90
49032;DHT22;63443;48.366;10.876;2023-04-25T02:50:02;8.40;99.90
49032;DHT22;63443;48.366;10.876;2023-04-25T02:52:27;8.40;99.90
49032;DHT22;63443;48.366;10.876;2023-04-25T02:54:53;8.50;99.90
49032;DHT22;63443;48.366;10.876;2023-04-25T02:57:18;8.50;99.90
49032;DHT22;63443;48.366;10.876;2023-04-25T02:59:44;8.60;99.90
49032;DHT22;63443;48.366;10.876;2023-04-25T03:02:09;8.60;99.90
49032;DHT22;63443;48.366;10.876;2023-04-25T03:04:35;8.60;99.90
49032;DHT22;63443;48.366;10.876;2023-04-25T03:07:00;8.60;99.90
49032;DHT22;63443;48.366;10.876;2023-04-25T03:09:26;8.70;99.90
49032;DHT22;63443;48.366;10.876;2023-04-25T03:11:52;8.70;99.90
49032;DHT22;63443;48.366;10.876;2023-04-25T03:14:17;8.70;99.90
49032;DHT22;63443;48.366;10.876;2023-04-25T03:16:42;8.70;99.90
49032;DHT22;63443;48.366;10.876;2023-04-25T03:19:08;8.70;99.90
49032;DHT22;63443;48.366;10.876;2023-04-25T03:21:34;8.70;99.90
49032;DHT22;63443;48.366;10.876;2023-04-25T03:24:00;8.70;99.90
49032;DHT22;63443;48.366;10.876;2023-04-25T03:26:27;8.70;99.90
49032;DHT22;63443;48.366;10.876;2023-04-25T03:28:52;8.70;99.90
49032;DHT22;63443;48.366;10.876;2023-04-25T03:31:18;8.80;99.90
49032;DHT22;63443;48.366;10.876;2023-04-25T03:33:43;8.70;99.90
49032;DHT22;63443;48.366;10.876;2023-04-25T03:36:09;8.70;99.90
49032;DHT22;63443;48.366;10.876;2023-04-25T03:38:35;8.70;99.90
49032;DHT22;63443;48.366;10.876;2023-04-25T03:41:01;8.70;99.90
49032;DHT22;63443;48.366;10.876;2023-04-25T03:43:27;8.70;99.90
49032;DHT22;63443;48.366;10.876;2023-04-25T03:45:52;8.70;99.90
49032;DHT22;63443;48.366;10.876;2023-04-25T03:48:18;8.70;99.90
49032;DHT22;63443;48.366;10.876;2023-04-25T03:50:44;8.70;99.90
49032;DHT22;63443;48.366;10.876;2023-04-25T03:53:10;8.70;99.90
49032;DHT22;63443;48.366;10.876;2023-04-25T03:55:35;8.70;99.90
49032;DHT22;63443;48.366;10.876;2023-04-25T03:58:01;8.70;99.90
49032;DHT22;63443;48.366;10.876;2023-04-25T04:00:26;8.70;99.90
49032;DHT22;63443;48.366;10.876;2023-04-25T04:02:52;8.70;99.90
49032;DHT22;63443;48.366;10.876;2023-04-25T04:05:17;8.70;99.90
49032;DHT22;63443;48.366;10.876;2023-04-25T04:07:43;8.60;99.90
49032;DHT22;63443;48.366;10.876;2023-04-25T04:10:09;8.60;99.90
49032;DHT22;63443;48.366;10.876;2023-04-25T04:12:35;8.60;99.90
49032;DHT22;63443;48.366;10.876;2023-04-25T04:15:04;8.60;99.90
49032;DHT22;63443;48.366;10.876;2023-04-25T04:17:30;8.60;99.90
49032;DHT22;63443;48.366;10.876;2023-04-25T04:19:55;8.60;99.90
49032;DHT22;63443;48.366;10.876;2023-04-25T04:22:21;8.60;99.90
49032;DHT22;63443;48.366;10.876;2023-04-25T04:24:47;8.70;99.90
49032;DHT22;63443;48.366;10.876;2023-04-25T04:27:12;8.60;99.90
49032;DHT22;63443;48.366;10.876;2023-04-25T04:29:38;8.60;99.90
49032;DHT22;63443;48.366;10.876;2023-04-25T04:32:03;8.60;99.90
49032;DHT22;63443;48.366;10.876;2023-04-25T04:34:30;8.50;99.90
49032;DHT22;63443;48.366;10.876;2023-04-25T04:36:56;8.50;99.90
49032;DHT22;63443;48.366;10.876;2023-04-25T04:39:22;8.60;99.90
49032;DHT22;63443;48.366;10.876;2023-04-25T04:41:47;8.60;99.90
49032;DHT22;63443;48.366;10.876;2023-04-25T04:44:13;8.60;99.90
49032;DHT22;63443;48.366;10.876;2023-04-25T04:46:39;8.60;99.90
49032;DHT22;63443;48.366;10.876;2023-04-25T04:49:05;8.60;99.90
49032;DHT22;63443;48.366;10.876;2023-04-25T04:51:31;8.60;99.90
49032;DHT22;63443;48.366;10.876;2023-04-25T04:53:57;8.60;99.90
49032;DHT22;63443;48.366;10.876;2023-04-25T04:56:24;8.60;99.90
49032;DHT22;63443;48.366;10.876;2023-04-25T04:58:50;8.70;99.90
49032;DHT22;63443;48.366;10.876;2023-04-25T05:01:16;8.70;99.90
49032;DHT22;63443;48.366;10.876;2023-04-25T05:03:41;8.60;99.90
49032;DHT22;63443;48.366;10.876;2023-04-25T05:06:07;8.60;99.90
49032;DHT22;63443;48.366;10.876;2023-04-25T05:08:34;8.60;99.90
49032;DHT22;63443;48.366;10.876;2023-04-25T05:10:59;8.60;99.90
49032;DHT22;63443;48.366;10.876;2023-04-25T05:13:25;8.50;99.90
49032;DHT22;63443;48.366;10.876;2023-04-25T05:15:50;8.50;99.90
49032;DHT22;63443;48.366;10.876;2023-04-25T05:18:16;8.40;99.90
49032;DHT22;63443;48.366;10.876;2023-04-25T05:20:41;8.40;99.90
49032;DHT22;63443;48.366;10.876;2023-04-25T05:23:06;8.50;99.90
49032;DHT22;63443;48.366;10.876;2023-04-25T05:25:32;8.40;99.90
49032;DHT22;63443;48.366;10.876;2023-04-25T05:27:58;8.40;99.90
49032;DHT22;63443;48.366;10.876;2023-04-25T05:30:23;8.30;99.90
49032;DHT22;63443;48.366;10.876;2023-04-25T05:32:49;8.30;99.90
49032;DHT22;63443;48.366;10.876;2023-04-25T05:35:14;8.30;99.90
49032;DHT22;63443;48.366;10.876;2023-04-25T05:37:40;8.40;99.90
49032;DHT22;63443;48.366;10.876;2023-04-25T05:40:06;8.50;99.90
49032;DHT22;63443;48.366;10.876;2023-04-25T05:42:32;8.50;99.90
49032;DHT22;63443;48.366;10.876;2023-04-25T05:44:57;8.50;99.90
49032;DHT22;63443;48.366;10.876;2023-04-25T05:47:23;8.50;99.90
49032;DHT22;63443;48.366;10.876;2023-04-25T05:49:48;8.50;99.90
49032;DHT22;63443;48.366;10.876;2023-04-25T05:52:14;8.50;99.90
49032;DHT22;63443;48.366;10.876;2023-04-25T05:54:40;8.50;99.90
49032;DHT22;63443;48.366;10.876;2023-04-25T05:57:06;8.50;99.90
49032;DHT22;63443;48.366;10.876;2023-04-25T05:59:31;8.50;99.90
49032;DHT22;63443;48.366;10.876;2023-04-25T06:01:57;8.50;99.90
49032;DHT22;63443;48.366;10.876;2023-04-25T06:04:22;8.50;99.90
49032;DHT22;63443;48.366;10.876;2023-04-25T06:06:47;8.50;99.90
49032;DHT22;63443;48.366;10.876;2023-04-25T06:09:13;8.50;99.90
49032;DHT22;63443;48.366;10.876;2023-04-25T06:11:38;8.50;99.90
49032;DHT22;63443;48.366;10.876;2023-04-25T06:14:05;8.50;99.90
49032;DHT22;63443;48.366;10.876;2023-04-25T06:16:31;8.50;99.90
49032;DHT22;63443;48.366;10.876;2023-04-25T06:18:56;8.50;99.90
49032;DHT22;63443;48.366;10.876;2023-04-25T06:21:22;8.50;99.90
49032;DHT22;63443;48.366;10.876;2023-04-25T06:23:47;8.50;99.90
49032;DHT22;63443;48.366;10.876;2023-04-25T06:26:12;8.50;99.90
49032;DHT22;63443;48.366;10.876;2023-04-25T06:28:38;8.60;99.90
49032;DHT22;63443;48.366;10.876;2023-04-25T06:31:03;8.80;99.90
49032;DHT22;63443;48.366;10.876;2023-04-25T06:33:29;9.00;99.90
49032;DHT22;63443;48.366;10.876;2023-04-25T06:35:54;9.20;99.90
49032;DHT22;63443;48.366;10.876;2023-04-25T06:38:20;9.40;99.90
49032;DHT22;63443;48.366;10.876;2023-04-25T06:40:45;9.40;99.90
49032;DHT22;63443;48.366;10.876;2023-04-25T06:43:11;9.40;99.90
49032;DHT22;63443;48.366;10.876;2023-04-25T06:45:36;9.50;99.90
49032;DHT22;63443;48.366;10.876;2023-04-25T06:48:02;9.50;99.90
49032;DHT22;63443;48.366;10.876;2023-04-25T06:50:27;9.50;99.90
49032;DHT22;63443;48.366;10.876;2023-04-25T06:52:53;9.50;99.90
49032;DHT22;63443;48.366;10.876;2023-04-25T06:55:18;9.50;99.90
49032;DHT22;63443;48.366;10.876;2023-04-25T06:57:44;9.40;99.90
49032;DHT22;63443;48.366;10.876;2023-04-25T07:00:09;9.40;99.90
49032;DHT22;63443;48.366;10.876;2023-04-25T07:02:36;9.40;99.90
49032;DHT22;63443;48.366;10.876;2023-04-25T07:05:01;9.50;99.90
49032;DHT22;63443;48.366;10.876;2023-04-25T07:07:29;9.50;99.90
49032;DHT22;63443;48.366;10.876;2023-04-25T07:09:55;9.50;99.90
49032;DHT22;63443;48.366;10.876;2023-04-25T07:12:21;9.50;99.90
49032;DHT22;63443;48.366;10.876;2023-04-25T07:14:46;9.50;99.90
49032;DHT22;63443;48.366;10.876;2023-04-25T07:17:12;9.40;99.90
49032;DHT22;63443;48.366;10.876;2023-04-25T07:19:37;9.40;99.90
49032;DHT22;63443;48.366;10.876;2023-04-25T07:22:05;9.40;99.90
49032;DHT22;63443;48.366;10.876;2023-04-25T07:24:31;9.40;99.90
49032;DHT22;63443;48.366;10.876;2023-04-25T07:26:56;9.50;99.90
49032;DHT22;63443;48.366;10.876;2023-04-25T07:29:21;9.50;99.90
49032;DHT22;63443;48.366;10.876;2023-04-25T07:31:47;9.60;99.90
49032;DHT22;63443;48.366;10.876;2023-04-25T07:34:13;9.60;99.90
49032;DHT22;63443;48.366;10.876;2023-04-25T07:36:38;9.60;99.90
49032;DHT22;63443;48.366;10.876;2023-04-25T07:39:03;9.60;99.90
49032;DHT22;63443;48.366;10.876;2023-04-25T07:41:29;9.70;99.90
49032;DHT22;63443;48.366;10.876;2023-04-25T07:43:55;9.80;99.90
49032;DHT22;63443;48.366;10.876;2023-04-25T07:46:20;9.90;99.90
49032;DHT22;63443;48.366;10.876;2023-04-25T07:48:45;10.00;99.90
49032;DHT22;63443;48.366;10.876;2023-04-25T07:51:11;10.00;99.90
49032;DHT22;63443;48.366;10.876;2023-04-25T07:53:36;10.20;99.90
49032;DHT22;63443;48.366;10.876;2023-04-25T07:56:02;10.20;99.90
49032;DHT22;63443;48.366;10.876;2023-04-25T07:58:28;10.30;99.90
49032;DHT22;63443;48.366;10.876;2023-04-25T08:00:53;10.30;99.90
49032;DHT22;63443;48.366;10.876;2023-04-25T08:03:19;10.30;99.90
49032;DHT22;63443;48.366;10.876;2023-04-25T08:05:45;10.30;99.90
49032;DHT22;63443;48.366;10.876;2023-04-25T08:08:11;10.40;99.90
49032;DHT22;63443;48.366;10.876;2023-04-25T08:10:36;10.50;99.90
49032;DHT22;63443;48.366;10.876;2023-04-25T08:13:01;10.60;99.90
49032;DHT22;63443;48.366;10.876;2023-04-25T08:15:27;10.70;99.90
49032;DHT22;63443;48.366;10.876;2023-04-25T08:17:53;10.80;99.90
49032;DHT22;63443;48.366;10.876;2023-04-25T08:20:18;10.90;99.90
49032;DHT22;63443;48.366;10.876;2023-04-25T08:22:44;11.00;99.90
49032;DHT22;63443;48.366;10.876;2023-04-25T08:25:09;11.10;98.70
49032;DHT22;63443;48.366;10.876;2023-04-25T08:27:35;11.10;99.50
49032;DHT22;63443;48.366;10.876;2023-04-25T08:30:02;11.20;99.40
49032;DHT22;63443;48.366;10.876;2023-04-25T08:32:28;11.30;99.60
49032;DHT22;63443;48.366;10.876;2023-04-25T08:34:54;11.50;99.40
49032;DHT22;63443;48.366;10.876;2023-04-25T08:37:20;11.60;98.40
49032;DHT22;63443;48.366;10.876;2023-04-25T08:39:46;11.70;97.80
49032;DHT22;63443;48.366;10.876;2023-04-25T08:42:13;11.70;97.90
49032;DHT22;63443;48.366;10.876;2023-04-25T08:44:40;11.70;98.20
49032;DHT22;63443;48.366;10.876;2023-04-25T08:47:05;11.80;98.30
49032;DHT22;63443;48.366;10.876;2023-04-25T08:49:34;11.90;97.70
49032;DHT22;63443;48.366;10.876;2023-04-25T08:52:00;12.10;97.50
49032;DHT22;63443;48.366;10.876;2023-04-25T08:54:26;12.20;97.30
49032;DHT22;63443;48.366;10.876;2023-04-25T08:56:54;12.20;95.70
49032;DHT22;63443;48.366;10.876;2023-04-25T08:59:20;12.20;94.70
49032;DHT22;63443;48.366;10.876;2023-04-25T09:01:46;12.10;94.70
49032;DHT22;63443;48.366;10.876;2023-04-25T09:04:12;12.00;95.40
49032;DHT22;63443;48.366;10.876;2023-04-25T09:06:37;12.00;94.90
49032;DHT22;63443;48.366;10.876;2023-04-25T09:09:03;11.90;95.60
49032;DHT22;63443;48.366;10.876;2023-04-25T09:11:30;11.90;95.50
49032;DHT22;63443;48.366;10.876;2023-04-25T09:14:12;12.00;95.60
49032;DHT22;63443;48.366;10.876;2023-04-25T09:16:57;12.00;95.10
49032;DHT22;63443;48.366;10.876;2023-04-25T09:19:27;12.00;94.80
49032;DHT22;63443;48.366;10.876;2023-04-25T09:21:53;12.10;94.50
49032;DHT22;63443;48.366;10.876;2023-04-25T09:27:02;12.30;94.40
49032;DHT22;63443;48.366;10.876;2023-04-25T09:29:28;12.30;93.70
49032;DHT22;63443;48.366;10.876;2023-04-25T09:32:09;12.40;93.80
49032;DHT22;63443;48.366;10.876;2023-04-25T09:34:43;12.40;93.70
49032;DHT22;63443;48.366;10.876;2023-04-25T09:37:09;12.40;93.60
49032;DHT22;63443;48.366;10.876;2023-04-25T09:39:39;12.40;93.60
49032;DHT22;63443;48.366;10.876;2023-04-25T09:42:05;12.40;93.90
49032;DHT22;63443;48.366;10.876;2023-04-25T09:44:30;12.40;93.80
49032;DHT22;63443;48.366;10.876;2023-04-25T09:46:56;12.40;93.70
49032;DHT22;63443;48.366;10.876;2023-04-25T09:49:22;12.30;93.70
49032;DHT22;63443;48.366;10.876;2023-04-25T09:51:54;12.20;93.20
49032;DHT22;63443;48.366;10.876;2023-04-25T09:54:21;12.10;94.00
49032;DHT22;63443;48.366;10.876;2023-04-25T09:56:46;11.90;94.40
49032;DHT22;63443;48.366;10.876;2023-04-25T09:59:13;11.70;95.20
49032;DHT22;63443;48.366;10.876;2023-04-25T10:01:39;11.50;96.30
49032;DHT22;63443;48.366;10.876;2023-04-25T10:04:05;11.30;97.80
49032;DHT22;63443;48.366;10.876;2023-04-25T10:06:31;11.20;99.30
49032;DHT22;63443;48.366;10.876;2023-04-25T10:08:58;11.10;99.90
49032;DHT22;63443;48.366;10.876;2023-04-25T10:11:24;11.00;99.90
49032;DHT22;63443;48.366;10.876;2023-04-25T10:13:50;11.00;99.90
49032;DHT22;63443;48.366;10.876;2023-04-25T10:16:16;11.00;99.70
49032;DHT22;63443;48.366;10.876;2023-04-25T10:18:43;11.00;99.80
49032;DHT22;63443;48.366;10.876;2023-04-25T10:21:08;11.00;99.90
49032;DHT22;63443;48.366;10.876;2023-04-25T10:23:34;11.00;99.90
49032;DHT22;63443;48.366;10.876;2023-04-25T10:26:00;11.10;99.90
49032;DHT22;63443;48.366;10.876;2023-04-25T10:28:25;11.20;99.90
49032;DHT22;63443;48.366;10.876;2023-04-25T10:31:04;11.20;99.90
49032;DHT22;63443;48.366;10.876;2023-04-25T10:33:37;11.30;99.20
49032;DHT22;63443;48.366;10.876;2023-04-25T10:36:13;11.40;99.20
49032;DHT22;63443;48.366;10.876;2023-04-25T10:38:39;11.50;98.70
49032;DHT22;63443;48.366;10.876;2023-04-25T10:41:05;11.60;98.60
49032;DHT22;63443;48.366;10.876;2023-04-25T10:45:57;11.80;98.20
49032;DHT22;63443;48.366;10.876;2023-04-25T10:48:31;11.80;97.60
49032;DHT22;63443;48.366;10.876;2023-04-25T10:51:10;11.90;97.60
49032;DHT22;63443;48.366;10.876;2023-04-25T10:53:36;12.00;97.30
49032;DHT22;63443;48.366;10.876;2023-04-25T10:56:21;12.10;96.80
49032;DHT22;63443;48.366;10.876;2023-04-25T10:58:48;12.10;96.40
49032;DHT22;63443;48.366;10.876;2023-04-25T11:01:20;12.20;96.50
49032;DHT22;63443;48.366;10.876;2023-04-25T11:03:46;12.20;95.90
49032;DHT22;63443;48.366;10.876;2023-04-25T11:06:23;12.30;96.00
49032;DHT22;63443;48.366;10.876;2023-04-25T11:08:52;12.40;95.90
49032;DHT22;63443;48.366;10.876;2023-04-25T11:11:18;12.40;95.60
49032;DHT22;63443;48.366;10.876;2023-04-25T11:13:47;12.50;96.10
49032;DHT22;63443;48.366;10.876;2023-04-25T11:16:13;12.50;95.90
49032;DHT22;63443;48.366;10.876;2023-04-25T11:18:41;12.50;96.20
49032;DHT22;63443;48.366;10.876;2023-04-25T11:21:07;12.30;96.30
49032;DHT22;63443;48.366;10.876;2023-04-25T11:23:32;12.30;96.90
49032;DHT22;63443;48.366;10.876;2023-04-25T11:25:58;12.20;97.10
49032;DHT22;63443;48.366;10.876;2023-04-25T11:28:26;12.10;97.30
49032;DHT22;63443;48.366;10.876;2023-04-25T11:30:52;11.90;97.10
49032;DHT22;63443;48.366;10.876;2023-04-25T11:33:17;11.70;97.80
49032;DHT22;63443;48.366;10.876;2023-04-25T11:35:43;11.50;98.50
49032;DHT22;63443;48.366;10.876;2023-04-25T11:38:09;11.10;99.90
49032;DHT22;63443;48.366;10.876;2023-04-25T11:40:35;10.70;99.90
49032;DHT22;63443;48.366;10.876;2023-04-25T11:43:01;10.50;99.90
49032;DHT22;63443;48.366;10.876;2023-04-25T11:45:27;10.30;99.90
49032;DHT22;63443;48.366;10.876;2023-04-25T11:47:53;10.20;99.90
49032;DHT22;63443;48.366;10.876;2023-04-25T11:50:19;10.10;99.90
49032;DHT22;63443;48.366;10.876;2023-04-25T11:52:46;9.90;99.90
49032;DHT22;63443;48.366;10.876;2023-04-25T11:55:16;9.80;99.90
49032;DHT22;63443;48.366;10.876;2023-04-25T11:57:42;9.60;99.90
49032;DHT22;63443;48.366;10.876;2023-04-25T12:00:09;9.40;99.90
49032;DHT22;63443;48.366;10.876;2023-04-25T12:02:36;9.30;99.90
49032;DHT22;63443;48.366;10.876;2023-04-25T12:05:02;9.10;99.90
49032;DHT22;63443;48.366;10.876;2023-04-25T12:07:28;9.00;99.90
49032;DHT22;63443;48.366;10.876;2023-04-25T12:09:54;9.00;99.90
49032;DHT22;63443;48.366;10.876;2023-04-25T12:12:19;8.90;99.90
49032;DHT22;63443;48.366;10.876;2023-04-25T12:14:46;8.90;99.90
49032;DHT22;63443;48.366;10.876;2023-04-25T12:17:13;8.90;99.90
49032;DHT22;63443;48.366;10.876;2023-04-25T12:19:38;9.00;99.90
49032;DHT22;63443;48.366;10.876;2023-04-25T12:22:19;8.90;99.90
49032;DHT22;63443;48.366;10.876;2023-04-25T12:24:46;8.90;99.90
49032;DHT22;63443;48.366;10.876;2023-04-25T12:27:13;8.90;99.90
49032;DHT22;63443;48.366;10.876;2023-04-25T12:29:49;8.90;99.90
49032;DHT22;63443;48.366;10.876;2023-04-25T12:32:16;8.90;99.90
49032;DHT22;63443;48.366;10.876;2023-04-25T12:34:41;8.90;99.90
49032;DHT22;63443;48.366;10.876;2023-04-25T12:37:07;8.80;99.90
49032;DHT22;63443;48.366;10.876;2023-04-25T12:39:32;8.70;99.90
49032;DHT22;63443;48.366;10.876;2023-04-25T12:41:58;8.70;99.90
49032;DHT22;63443;48.366;10.876;2023-04-25T12:44:24;8.60;99.90
49032;DHT22;63443;48.366;10.876;2023-04-25T12:46:50;8.40;99.90
49032;DHT22;63443;48.366;10.876;2023-04-25T12:49:16;8.40;99.90
49032;DHT22;63443;48.366;10.876;2023-04-25T12:51:41;8.40;99.90
49032;DHT22;63443;48.366;10.876;2023-04-25T12:54:07;8.40;99.90
49032;DHT22;63443;48.366;10.876;2023-04-25T12:56:33;8.40;99.90
49032;DHT22;63443;48.366;10.876;2023-04-25T12:58:59;8.40;99.90
49032;DHT22;63443;48.366;10.876;2023-04-25T13:01:25;8.40;99.90
49032;DHT22;63443;48.366;10.876;2023-04-25T13:03:51;8.40;99.90
49032;DHT22;63443;48.366;10.876;2023-04-25T13:06:17;8.50;99.90
49032;DHT22;63443;48.366;10.876;2023-04-25T13:08:43;8.50;99.90
49032;DHT22;63443;48.366;10.876;2023-04-25T13:11:08;8.50;99.90
49032;DHT22;63443;48.366;10.876;2023-04-25T13:13:34;8.60;99.90
49032;DHT22;63443;48.366;10.876;2023-04-25T13:16:00;8.70;99.90
49032;DHT22;63443;48.366;10.876;2023-04-25T13:18:26;8.70;99.90
49032;DHT22;63443;48.366;10.876;2023-04-25T13:20:52;8.80;99.90
49032;DHT22;63443;48.366;10.876;2023-04-25T13:23:17;8.90;99.90
49032;DHT22;63443;48.366;10.876;2023-04-25T13:25:43;9.00;99.90
49032;DHT22;63443;48.366;10.876;2023-04-25T13:28:08;9.10;99.90
49032;DHT22;63443;48.366;10.876;2023-04-25T13:30:34;9.40;99.90
49032;DHT22;63443;48.366;10.876;2023-04-25T13:32:59;9.70;99.90
49032;DHT22;63443;48.366;10.876;2023-04-25T13:35:28;10.10;99.90
49032;DHT22;63443;48.366;10.876;2023-04-25T13:37:54;10.30;99.90
49032;DHT22;63443;48.366;10.876;2023-04-25T13:40:20;10.20;99.90
49032;DHT22;63443;48.366;10.876;2023-04-25T13:42:45;10.10;99.90
49032;DHT22;63443;48.366;10.876;2023-04-25T13:45:11;9.90;99.90
49032;DHT22;63443;48.366;10.876;2023-04-25T13:47:36;9.80;99.90
49032;DHT22;63443;48.366;10.876;2023-04-25T13:50:02;9.70;99.90
49032;DHT22;63443;48.366;10.876;2023-04-25T13:52:28;9.60;99.90
49032;DHT22;63443;48.366;10.876;2023-04-25T13:54:54;9.50;99.90
49032;DHT22;63443;48.366;10.876;2023-04-25T13:57:19;9.40;99.90
49032;DHT22;63443;48.366;10.876;2023-04-25T13:59:45;9.20;99.90
49032;DHT22;63443;48.366;10.876;2023-04-25T14:02:11;9.10;99.90
49032;DHT22;63443;48.366;10.876;2023-04-25T14:04:37;9.00;99.90
49032;DHT22;63443;48.366;10.876;2023-04-25T14:07:03;8.90;99.90
49032;DHT22;63443;48.366;10.876;2023-04-25T14:09:28;8.80;99.90
49032;DHT22;63443;48.366;10.876;2023-04-25T14:11:55;8.80;99.90
49032;DHT22;63443;48.366;10.876;2023-04-25T14:14:21;8.80;99.90
49032;DHT22;63443;48.366;10.876;2023-04-25T14:16:47;8.80;99.90
49032;DHT22;63443;48.366;10.876;2023-04-25T14:19:15;8.80;99.90
49032;DHT22;63443;48.366;10.876;2023-04-25T14:21:41;8.90;99.90
49032;DHT22;63443;48.366;10.876;2023-04-25T14:24:08;9.00;99.90
49032;DHT22;63443;48.366;10.876;2023-04-25T14:26:33;9.10;99.90
49032;DHT22;63443;48.366;10.876;2023-04-25T14:29:00;9.10;99.90
49032;DHT22;63443;48.366;10.876;2023-04-25T14:31:26;9.20;99.90
49032;DHT22;63443;48.366;10.876;2023-04-25T14:33:51;9.20;99.90
49032;DHT22;63443;48.366;10.876;2023-04-25T14:36:17;9.20;99.90
49032;DHT22;63443;48.366;10.876;2023-04-25T14:38:43;9.30;99.90
49032;DHT22;63443;48.366;10.876;2023-04-25T14:41:09;9.40;99.90
49032;DHT22;63443;48.366;10.876;2023-04-25T14:43:34;9.70;99.90
49032;DHT22;63443;48.366;10.876;2023-04-25T14:46:01;10.10;99.90
49032;DHT22;63443;48.366;10.876;2023-04-25T14:48:27;10.80;99.90
49032;DHT22;63443;48.366;10.876;2023-04-25T14:50:52;10.80;99.90
49032;DHT22;63443;48.366;10.876;2023-04-25T14:53:18;10.80;99.90
49032;DHT22;63443;48.366;10.876;2023-04-25T14:55:43;10.60;99.90
49032;DHT22;63443;48.366;10.876;2023-04-25T14:58:09;10.40;99.90
49032;DHT22;63443;48.366;10.876;2023-04-25T15:00:34;10.20;99.90
49032;DHT22;63443;48.366;10.876;2023-04-25T15:03:00;10.10;99.90
49032;DHT22;63443;48.366;10.876;2023-04-25T15:05:26;10.00;99.90
49032;DHT22;63443;48.366;10.876;2023-04-25T15:07:51;9.90;99.90
49032;DHT22;63443;48.366;10.876;2023-04-25T15:10:17;9.90;99.90
49032;DHT22;63443;48.366;10.876;2023-04-25T15:12:43;9.90;99.90
49032;DHT22;63443;48.366;10.876;2023-04-25T15:15:09;10.00;99.90
49032;DHT22;63443;48.366;10.876;2023-04-25T15:17:38;10.00;99.90
49032;DHT22;63443;48.366;10.876;2023-04-25T15:20:07;10.00;99.90
49032;DHT22;63443;48.366;10.876;2023-04-25T15:22:35;10.20;99.90
49032;DHT22;63443;48.366;10.876;2023-04-25T15:25:01;10.30;99.90
49032;DHT22;63443;48.366;10.876;2023-04-25T15:27:26;10.40;99.90